Home > Products > Valid Products > TAF

000
FTUS45 KBYZ 032322
TAFMLS
TAF
KMLS 032322Z 0400/0424 VRB05KT P6SM FEW070 FEW250
     FM041200 24007KT P6SM FEW250=



000
FTUS45 KBYZ 032322
TAFSHR
TAF
KSHR 032322Z 0400/0424 VRB05KT P6SM SCT080
     FM041500 29005KT P6SM FEW250=



000
FTUS45 KBYZ 032322
TAFLVM
TAF
KLVM 032322Z 0400/0424 VRB05KT P6SM FEW060 SCT250
     FM041200 28010KT P6SM FEW250=



000
FTUS45 KBYZ 032322
TAFBIL
TAF
KBIL 032322Z 0400/0424 14008KT P6SM FEW080 FEW250
     FM041000 24006KT P6SM FEW250=



000
FTUS45 KBYZ 032322
TAFLVM
TAF
KLVM 032322Z 0400/0424 VRB05KT P6SM FEW060 SCT250
     FM041200 28010KT P6SM FEW250=



000
FTUS45 KBYZ 032322
TAFSHR
TAF
KSHR 032322Z 0400/0424 VRB05KT P6SM SCT080
     FM041500 29005KT P6SM FEW250=



000
FTUS45 KBYZ 032322
TAFBIL
TAF
KBIL 032322Z 0400/0424 14008KT P6SM FEW080 FEW250
     FM041000 24006KT P6SM FEW250=



000
FTUS45 KBYZ 032322
TAFMLS
TAF
KMLS 032322Z 0400/0424 VRB05KT P6SM FEW070 FEW250
     FM041200 24007KT P6SM FEW250=



000
FTUS45 KBYZ 031720
TAFMLS
TAF
KMLS 031720Z 0318/0418 VRB05KT P6SM FEW070 FEW250
     FM041200 24007KT P6SM FEW250=



000
FTUS45 KBYZ 031720
TAFLVM
TAF
KLVM 031720Z 0318/0418 VRB05KT P6SM FEW060
     FM041200 33010KT P6SM FEW250=



000
FTUS45 KBYZ 031720
TAFLVM
TAF
KLVM 031720Z 0318/0418 VRB05KT P6SM FEW060
     FM041200 33010KT P6SM FEW250=



000
FTUS45 KBYZ 031720
TAFBIL
TAF
KBIL 031720Z 0318/0418 14008KT P6SM FEW080
     FM041000 25006KT P6SM FEW250=



000
FTUS45 KBYZ 031720
TAFSHR
TAF
KSHR 031720Z 0318/0418 VRB05KT P6SM FEW080
     FM041500 25005KT P6SM FEW250=



000
FTUS45 KBYZ 031720
TAFBIL
TAF
KBIL 031720Z 0318/0418 14008KT P6SM FEW080
     FM041000 25006KT P6SM FEW250=



000
FTUS45 KBYZ 031720
TAFSHR
TAF
KSHR 031720Z 0318/0418 VRB05KT P6SM FEW080
     FM041500 25005KT P6SM FEW250=



000
FTUS45 KBYZ 031720
TAFMLS
TAF
KMLS 031720Z 0318/0418 VRB05KT P6SM FEW070 FEW250
     FM041200 24007KT P6SM FEW250=



000
FTUS45 KBYZ 031720
TAFMLS
TAF
KMLS 031720Z 0318/0418 VRB05KT P6SM FEW070 FEW250
     FM041200 24007KT P6SM FEW250=



000
FTUS45 KBYZ 031720
TAFLVM
TAF
KLVM 031720Z 0318/0418 VRB05KT P6SM FEW060
     FM041200 33010KT P6SM FEW250=



000
FTUS45 KBYZ 031720
TAFSHR
TAF
KSHR 031720Z 0318/0418 VRB05KT P6SM FEW080
     FM041500 25005KT P6SM FEW250=



000
FTUS45 KBYZ 031720
TAFLVM
TAF
KLVM 031720Z 0318/0418 VRB05KT P6SM FEW060
     FM041200 33010KT P6SM FEW250=



000
FTUS45 KBYZ 031720
TAFBIL
TAF
KBIL 031720Z 0318/0418 14008KT P6SM FEW080
     FM041000 25006KT P6SM FEW250=



000
FTUS45 KBYZ 031720
TAFBIL
TAF
KBIL 031720Z 0318/0418 14008KT P6SM FEW080
     FM041000 25006KT P6SM FEW250=



000
FTUS45 KBYZ 031720
TAFSHR
TAF
KSHR 031720Z 0318/0418 VRB05KT P6SM FEW080
     FM041500 25005KT P6SM FEW250=



000
FTUS45 KBYZ 031720
TAFMLS
TAF
KMLS 031720Z 0318/0418 VRB05KT P6SM FEW070 FEW250
     FM041200 24007KT P6SM FEW250=



000
FTUS45 KBYZ 031137
TAFBIL
TAF
KBIL 031137Z 0312/0412 10008KT P6SM FEW120
      TEMPO 0312/0315 6SM HZ=



000
FTUS45 KBYZ 031137
TAFSHR
TAF
KSHR 031137Z 0312/0412 VRB04KT P6SM FEW120=



000
FTUS45 KBYZ 031137
TAFBIL
TAF
KBIL 031137Z 0312/0412 10008KT P6SM FEW120
      TEMPO 0312/0315 6SM HZ=



000
FTUS45 KBYZ 031137
TAFLVM
TAF
KLVM 031137Z 0312/0412 09009KT P6SM FEW120=



000
FTUS45 KBYZ 031137
TAFLVM
TAF
KLVM 031137Z 0312/0412 09009KT P6SM FEW120=



000
FTUS45 KBYZ 031137
TAFMLS
TAF
KMLS 031137Z 0312/0412 13005KT P6SM FEW200
      TEMPO 0312/0316 5SM FU=



000
FTUS45 KBYZ 031137
TAFSHR
TAF
KSHR 031137Z 0312/0412 VRB04KT P6SM FEW120=



000
FTUS45 KBYZ 031137
TAFMLS
TAF
KMLS 031137Z 0312/0412 13005KT P6SM FEW200
      TEMPO 0312/0316 5SM FU=



000
FTUS45 KBYZ 031137
TAFLVM
TAF
KLVM 031137Z 0312/0412 09009KT P6SM FEW120=



000
FTUS45 KBYZ 031137
TAFBIL
TAF
KBIL 031137Z 0312/0412 10008KT P6SM FEW120
      TEMPO 0312/0315 6SM HZ=



000
FTUS45 KBYZ 031137
TAFSHR
TAF
KSHR 031137Z 0312/0412 VRB04KT P6SM FEW120=



000
FTUS45 KBYZ 031137
TAFLVM
TAF
KLVM 031137Z 0312/0412 09009KT P6SM FEW120=



000
FTUS45 KBYZ 031137
TAFMLS
TAF
KMLS 031137Z 0312/0412 13005KT P6SM FEW200
      TEMPO 0312/0316 5SM FU=



000
FTUS45 KBYZ 031137
TAFSHR
TAF
KSHR 031137Z 0312/0412 VRB04KT P6SM FEW120=



000
FTUS45 KBYZ 031137
TAFBIL
TAF
KBIL 031137Z 0312/0412 10008KT P6SM FEW120
      TEMPO 0312/0315 6SM HZ=



000
FTUS45 KBYZ 031137
TAFMLS
TAF
KMLS 031137Z 0312/0412 13005KT P6SM FEW200
      TEMPO 0312/0316 5SM FU=



000
FTUS45 KBYZ 030525
TAFLVM
TAF
KLVM 030525Z 0306/0406 09010KT P6SM FEW120=



000
FTUS45 KBYZ 030525
TAFMLS
TAF
KMLS 030525Z 0306/0406 13004KT P6SM FEW200
      TEMPO 0310/0314 5SM FU=



000
FTUS45 KBYZ 030525
TAFLVM
TAF
KLVM 030525Z 0306/0406 09010KT P6SM FEW120=



000
FTUS45 KBYZ 030525
TAFBIL
TAF
KBIL 030525Z 0306/0406 10009KT P6SM FEW120=



000
FTUS45 KBYZ 030525
TAFBIL
TAF
KBIL 030525Z 0306/0406 10009KT P6SM FEW120=



000
FTUS45 KBYZ 030525
TAFMLS
TAF
KMLS 030525Z 0306/0406 13004KT P6SM FEW200
      TEMPO 0310/0314 5SM FU=



000
FTUS45 KBYZ 030525
TAFSHR
TAF
KSHR 030525Z 0306/0406 VRB04KT P6SM FEW120=



000
FTUS45 KBYZ 030525
TAFSHR
TAF
KSHR 030525Z 0306/0406 VRB04KT P6SM FEW120=



000
FTUS45 KBYZ 022320
TAFBIL
TAF
KBIL 022320Z 0300/0324 06013KT P6SM SCT070
     FM031100 17007KT P6SM FEW150=



000
FTUS45 KBYZ 022320
TAFMLS
TAF
KMLS 022320Z 0300/0324 32009KT P6SM FEW060 SCT080
     FM030900 14007KT 6SM FU SKC=



000
FTUS45 KBYZ 022320
TAFLVM
TAF
KLVM 022320Z 0300/0324 06009KT P6SM SKC
     FM030300 09006KT P6SM SCT120
     FM031200 32006KT P6SM SKC=



000
FTUS45 KBYZ 022320
TAFSHR
TAF
KSHR 022320Z 0300/0324 35008KT P6SM FEW060 BKN080
     FM030300 VRB04KT P6SM SKC=



000
FTUS45 KBYZ 022320
TAFMLS
TAF
KMLS 022320Z 0300/0324 32009KT P6SM FEW060 SCT080
     FM030900 14007KT 6SM FU SKC=



000
FTUS45 KBYZ 022320
TAFBIL
TAF
KBIL 022320Z 0300/0324 06013KT P6SM SCT070
     FM031100 17007KT P6SM FEW150=



000
FTUS45 KBYZ 022320
TAFSHR
TAF
KSHR 022320Z 0300/0324 35008KT P6SM FEW060 BKN080
     FM030300 VRB04KT P6SM SKC=



000
FTUS45 KBYZ 022320
TAFLVM
TAF
KLVM 022320Z 0300/0324 06009KT P6SM SKC
     FM030300 09006KT P6SM SCT120
     FM031200 32006KT P6SM SKC=



000
FTUS45 KBYZ 021737
TAFMLS
TAF
KMLS 021737Z 0218/0318 34014G20KT P6SM FEW050
     FM030000 36009KT P6SM SKC
     FM031000 14007KT 6SM FU SKC=



000
FTUS45 KBYZ 021737
TAFSHR
TAF
KSHR 021737Z 0218/0318 34006KT P6SM FEW050
     FM022000 34008KT P6SM VCSH SCT060 BKN120
     FM030300 VRB04KT P6SM SKC=



000
FTUS45 KBYZ 021737
TAFMLS
TAF
KMLS 021737Z 0218/0318 34014G20KT P6SM FEW050
     FM030000 36009KT P6SM SKC
     FM031000 14007KT 6SM FU SKC=



000
FTUS45 KBYZ 021737
TAFLVM
TAF
KLVM 021737Z 0218/0318 08009KT P6SM FEW080
     FM022100 08012KT P6SM VCTS SCT080CB BKN120
     FM030300 09006KT P6SM SCT120
     FM031200 32006KT P6SM SKC=



000
FTUS45 KBYZ 021737
TAFBIL
TAF
KBIL 021737Z 0218/0318 07009KT P6SM FEW060 SCT150
     FM031100 22007KT P6SM FEW150=



000
FTUS45 KBYZ 021737
TAFLVM
TAF
KLVM 021737Z 0218/0318 08009KT P6SM FEW080
     FM022100 08012KT P6SM VCTS SCT080CB BKN120
     FM030300 09006KT P6SM SCT120
     FM031200 32006KT P6SM SKC=



000
FTUS45 KBYZ 021737
TAFMLS
TAF
KMLS 021737Z 0218/0318 34014G20KT P6SM FEW050
     FM030000 36009KT P6SM SKC
     FM031000 14007KT 6SM FU SKC=



000
FTUS45 KBYZ 021737
TAFBIL
TAF
KBIL 021737Z 0218/0318 07009KT P6SM FEW060 SCT150
     FM031100 22007KT P6SM FEW150=



000
FTUS45 KBYZ 021737
TAFSHR
TAF
KSHR 021737Z 0218/0318 34006KT P6SM FEW050
     FM022000 34008KT P6SM VCSH SCT060 BKN120
     FM030300 VRB04KT P6SM SKC=



000
FTUS45 KBYZ 021121
TAFSHR
TAF
KSHR 021121Z 0212/0312 VRB05KT P6SM FEW100
     FM021800 36010KT P6SM FEW070
     FM030000 VRB04KT P6SM SKC=



000
FTUS45 KBYZ 021121
TAFMLS
TAF
KMLS 021121Z 0212/0312 29010KT P6SM FEW120
     FM021700 33015G20KT 5SM FU FEW050
     FM030000 03005KT P6SM FEW050=



000
FTUS45 KBYZ 021121
TAFLVM
TAF
KLVM 021121Z 0212/0312 30006KT P6SM FEW100
     FM021800 07010KT P6SM FEW080
     FM022100 08012KT P6SM VCTS SCT080CB BKN120
     FM030300 09006KT P6SM SCT120=



000
FTUS45 KBYZ 021121
TAFBIL
TAF
KBIL 021121Z 0212/0312 32007KT P6SM FEW100
     FM030400 04005KT P6SM SKC=



000
FTUS45 KBYZ 021121
TAFLVM
TAF
KLVM 021121Z 0212/0312 30006KT P6SM FEW100
     FM021800 07010KT P6SM FEW080
     FM022100 08012KT P6SM VCTS SCT080CB BKN120
     FM030300 09006KT P6SM SCT120=



000
FTUS45 KBYZ 021121
TAFMLS
TAF
KMLS 021121Z 0212/0312 29010KT P6SM FEW120
     FM021700 33015G20KT 5SM FU FEW050
     FM030000 03005KT P6SM FEW050=



000
FTUS45 KBYZ 021121
TAFSHR
TAF
KSHR 021121Z 0212/0312 VRB05KT P6SM FEW100
     FM021800 36010KT P6SM FEW070
     FM030000 VRB04KT P6SM SKC=



000
FTUS45 KBYZ 021121
TAFBIL
TAF
KBIL 021121Z 0212/0312 32007KT P6SM FEW100
     FM030400 04005KT P6SM SKC=



000
FTUS45 KBYZ 021121
TAFMLS
TAF
KMLS 021121Z 0212/0312 29010KT P6SM FEW120
     FM021700 33015G20KT 5SM FU FEW050
     FM030000 03005KT P6SM FEW050=



000
FTUS45 KBYZ 021121
TAFLVM
TAF
KLVM 021121Z 0212/0312 30006KT P6SM FEW100
     FM021800 07010KT P6SM FEW080
     FM022100 08012KT P6SM VCTS SCT080CB BKN120
     FM030300 09006KT P6SM SCT120=



000
FTUS45 KBYZ 021121
TAFSHR
TAF
KSHR 021121Z 0212/0312 VRB05KT P6SM FEW100
     FM021800 36010KT P6SM FEW070
     FM030000 VRB04KT P6SM SKC=



000
FTUS45 KBYZ 021121
TAFSHR
TAF
KSHR 021121Z 0212/0312 VRB05KT P6SM FEW100
     FM021800 36010KT P6SM FEW070
     FM030000 VRB04KT P6SM SKC=



000
FTUS45 KBYZ 021121
TAFLVM
TAF
KLVM 021121Z 0212/0312 30006KT P6SM FEW100
     FM021800 07010KT P6SM FEW080
     FM022100 08012KT P6SM VCTS SCT080CB BKN120
     FM030300 09006KT P6SM SCT120=



000
FTUS45 KBYZ 021121
TAFBIL
TAF
KBIL 021121Z 0212/0312 32007KT P6SM FEW100
     FM030400 04005KT P6SM SKC=



000
FTUS45 KBYZ 021121
TAFMLS
TAF
KMLS 021121Z 0212/0312 29010KT P6SM FEW120
     FM021700 33015G20KT 5SM FU FEW050
     FM030000 03005KT P6SM FEW050=



000
FTUS45 KBYZ 021121
TAFBIL
TAF
KBIL 021121Z 0212/0312 32007KT P6SM FEW100
     FM030400 04005KT P6SM SKC=



000
FTUS45 KBYZ 020749 AAA
TAFLVM
TAF AMD
KLVM 020749Z 0208/0306 09012KT P6SM SKC
     FM021200 32006KT P6SM SKC
     FM021800 07010KT P6SM FEW080
     FM022100 08012KT P6SM VCTS SCT080CB BKN120=



000
FTUS45 KBYZ 020749 AAA
TAFLVM
TAF AMD
KLVM 020749Z 0208/0306 09012KT P6SM SKC
     FM021200 32006KT P6SM SKC
     FM021800 07010KT P6SM FEW080
     FM022100 08012KT P6SM VCTS SCT080CB BKN120=



000
FTUS45 KBYZ 020524
TAFLVM
TAF
KLVM 020524Z 0206/0306 10017G24KT P6SM FEW080
     FM021200 32006KT P6SM SKC
     FM021800 07010KT P6SM FEW080
     FM022100 08012KT P6SM VCTS SCT080CB BKN120=



000
FTUS45 KBYZ 020524
TAFBIL
TAF
KBIL 020524Z 0206/0306 02005KT P6SM FEW080 SCT250=



000
FTUS45 KBYZ 020524
TAFSHR
TAF
KSHR 020524Z 0206/0306 27006KT P6SM BKN060
     FM020800 32005KT P6SM SCT060
     FM021800 36010KT P6SM FEW070=



000
FTUS45 KBYZ 020524
TAFBIL
TAF
KBIL 020524Z 0206/0306 02005KT P6SM FEW080 SCT250=



000
FTUS45 KBYZ 020524
TAFMLS
TAF
KMLS 020524Z 0206/0306 02006KT P6SM FEW080
     FM021200 29010KT P6SM FEW120
     FM021700 33015G20KT 5SM FU FEW050
     FM030000 03005KT P6SM FEW050=



000
FTUS45 KBYZ 020524
TAFLVM
TAF
KLVM 020524Z 0206/0306 10017G24KT P6SM FEW080
     FM021200 32006KT P6SM SKC
     FM021800 07010KT P6SM FEW080
     FM022100 08012KT P6SM VCTS SCT080CB BKN120=



000
FTUS45 KBYZ 020524
TAFSHR
TAF
KSHR 020524Z 0206/0306 27006KT P6SM BKN060
     FM020800 32005KT P6SM SCT060
     FM021800 36010KT P6SM FEW070=



000
FTUS45 KBYZ 020524
TAFMLS
TAF
KMLS 020524Z 0206/0306 02006KT P6SM FEW080
     FM021200 29010KT P6SM FEW120
     FM021700 33015G20KT 5SM FU FEW050
     FM030000 03005KT P6SM FEW050=



000
FTUS45 KBYZ 020411 AAA
TAFLVM
TAF AMD
KLVM 020411Z 0204/0224 10017G24KT P6SM SKC
     FM021200 35008KT P6SM SKC=



000
FTUS45 KBYZ 020411 AAA
TAFLVM
TAF AMD
KLVM 020411Z 0204/0224 10017G24KT P6SM SKC
     FM021200 35008KT P6SM SKC=



000
FTUS45 KBYZ 020054 AAB
TAFBIL
TAF AMD
KBIL 020054Z 0201/0224 04025G33KT P6SM VCTS SCT090CB
     FM020200 04010KT P6SM FEW060
     FM021800 35011G19KT P6SM FEW100=



000
FTUS45 KBYZ 020054 AAB
TAFBIL
TAF AMD
KBIL 020054Z 0201/0224 04025G33KT P6SM VCTS SCT090CB
     FM020200 04010KT P6SM FEW060
     FM021800 35011G19KT P6SM FEW100=



000
FTUS45 KBYZ 020008 AAA
TAFBIL
TAF AMD
KBIL 020008Z 0200/0224 02010KT P6SM VCTS SCT090CB
      TEMPO 0200/0201 04025G33KT
     FM020200 04010KT P6SM FEW060
     FM021800 35011G19KT P6SM FEW100=



000
FTUS45 KBYZ 020008 AAA
TAFBIL
TAF AMD
KBIL 020008Z 0200/0224 02010KT P6SM VCTS SCT090CB
      TEMPO 0200/0201 04025G33KT
     FM020200 04010KT P6SM FEW060
     FM021800 35011G19KT P6SM FEW100=



000
FTUS45 KBYZ 020008 AAA
TAFBIL
TAF AMD
KBIL 020008Z 0200/0224 02010KT P6SM VCTS SCT090CB
      TEMPO 0200/0201 04025G33KT
     FM020200 04010KT P6SM FEW060
     FM021800 35011G19KT P6SM FEW100=



000
FTUS45 KBYZ 020008 AAA
TAFBIL
TAF AMD
KBIL 020008Z 0200/0224 02010KT P6SM VCTS SCT090CB
      TEMPO 0200/0201 04025G33KT
     FM020200 04010KT P6SM FEW060
     FM021800 35011G19KT P6SM FEW100=



000
FTUS45 KBYZ 012323
TAFMLS
TAF
KMLS 012323Z 0200/0224 VRB06KT 6SM FU VCTS SCT080CB BKN100
     FM020600 02010KT 5SM FU SCT090
     FM021800 33015G20KT 5SM FU FEW050=



000
FTUS45 KBYZ 012323
TAFLVM
TAF
KLVM 012323Z 0200/0224 34011G20KT P6SM SCT050
     FM020100 04009KT P6SM FEW050
     FM021200 35008KT P6SM SKC=



000
FTUS45 KBYZ 012323
TAFBIL
TAF
KBIL 012323Z 0200/0224 02010KT P6SM VCTS SCT090CB
     FM020200 04010KT P6SM FEW060
     FM021800 35011G19KT P6SM FEW100=



000
FTUS45 KBYZ 012323
TAFSHR
TAF
KSHR 012323Z 0200/0224 VRB06KT P6SM VCTS SCT090CB
     FM020200 34010KT P6SM SCT080
     FM021900 32010G18KT P6SM FEW100=



000
FTUS45 KBYZ 012323
TAFMLS
TAF
KMLS 012323Z 0200/0224 VRB06KT 6SM FU VCTS SCT080CB BKN100
     FM020600 02010KT 5SM FU SCT090
     FM021800 33015G20KT 5SM FU FEW050=



000
FTUS45 KBYZ 012323
TAFLVM
TAF
KLVM 012323Z 0200/0224 34011G20KT P6SM SCT050
     FM020100 04009KT P6SM FEW050
     FM021200 35008KT P6SM SKC=



000
FTUS45 KBYZ 012323
TAFBIL
TAF
KBIL 012323Z 0200/0224 02010KT P6SM VCTS SCT090CB
     FM020200 04010KT P6SM FEW060
     FM021800 35011G19KT P6SM FEW100=



000
FTUS45 KBYZ 012323
TAFSHR
TAF
KSHR 012323Z 0200/0224 VRB06KT P6SM VCTS SCT090CB
     FM020200 34010KT P6SM SCT080
     FM021900 32010G18KT P6SM FEW100=



000
FTUS45 KBYZ 012323
TAFMLS
TAF
KMLS 012323Z 0200/0224 VRB06KT 6SM FU VCTS SCT080CB BKN100
     FM020600 02010KT 5SM FU SCT090
     FM021800 33015G20KT 5SM FU FEW050=



000
FTUS45 KBYZ 012323
TAFLVM
TAF
KLVM 012323Z 0200/0224 34011G20KT P6SM SCT050
     FM020100 04009KT P6SM FEW050
     FM021200 35008KT P6SM SKC=



000
FTUS45 KBYZ 012323
TAFSHR
TAF
KSHR 012323Z 0200/0224 VRB06KT P6SM VCTS SCT090CB
     FM020200 34010KT P6SM SCT080
     FM021900 32010G18KT P6SM FEW100=



000
FTUS45 KBYZ 012323
TAFBIL
TAF
KBIL 012323Z 0200/0224 02010KT P6SM VCTS SCT090CB
     FM020200 04010KT P6SM FEW060
     FM021800 35011G19KT P6SM FEW100=



000
FTUS45 KBYZ 012323
TAFMLS
TAF
KMLS 012323Z 0200/0224 VRB06KT 6SM FU VCTS SCT080CB BKN100
     FM020600 02010KT 5SM FU SCT090
     FM021800 33015G20KT 5SM FU FEW050=



000
FTUS45 KBYZ 012323
TAFLVM
TAF
KLVM 012323Z 0200/0224 34011G20KT P6SM SCT050
     FM020100 04009KT P6SM FEW050
     FM021200 35008KT P6SM SKC=



000
FTUS45 KBYZ 012323
TAFBIL
TAF
KBIL 012323Z 0200/0224 02010KT P6SM VCTS SCT090CB
     FM020200 04010KT P6SM FEW060
     FM021800 35011G19KT P6SM FEW100=



000
FTUS45 KBYZ 012323
TAFSHR
TAF
KSHR 012323Z 0200/0224 VRB06KT P6SM VCTS SCT090CB
     FM020200 34010KT P6SM SCT080
     FM021900 32010G18KT P6SM FEW100=



000
FTUS45 KBYZ 012240 AAA
TAFBIL
TAF AMD
KBIL 012240Z 0123/0218 03010G20KT P6SM VCTS SCT090CB
      TEMPO 0123/0124 VRB15G25KT
     FM020200 04010KT P6SM FEW060=



000
FTUS45 KBYZ 012240 AAA
TAFBIL
TAF AMD
KBIL 012240Z 0123/0218 03010G20KT P6SM VCTS SCT090CB
      TEMPO 0123/0124 VRB15G25KT
     FM020200 04010KT P6SM FEW060=



000
FTUS45 KBYZ 011740
TAFBIL
TAF
KBIL 011740Z 0118/0218 VRB06KT P6SM FEW080
     FM012100 03010G20KT P6SM VCTS SCT090CB
     FM020200 04010KT P6SM FEW060=



000
FTUS45 KBYZ 011740
TAFSHR
TAF
KSHR 011740Z 0118/0218 VRB06KT P6SM SCT070
     FM012200 33009KT P6SM VCTS SCT090CB
     FM020200 34015G20KT P6SM SCT080
     FM021200 36006KT P6SM FEW100=



000
FTUS45 KBYZ 011740
TAFBIL
TAF
KBIL 011740Z 0118/0218 VRB06KT P6SM FEW080
     FM012100 03010G20KT P6SM VCTS SCT090CB
     FM020200 04010KT P6SM FEW060=



000
FTUS45 KBYZ 011740
TAFBIL
TAF
KBIL 011740Z 0118/0218 VRB06KT P6SM FEW080
     FM012100 03010G20KT P6SM VCTS SCT090CB
     FM020200 04010KT P6SM FEW060=



000
FTUS45 KBYZ 011740
TAFBIL
TAF
KBIL 011740Z 0118/0218 VRB06KT P6SM FEW080
     FM012100 03010G20KT P6SM VCTS SCT090CB
     FM020200 04010KT P6SM FEW060=



000
FTUS45 KBYZ 011740
TAFMLS
TAF
KMLS 011740Z 0118/0218 36010KT 5SM FU SCT070
     FM012000 36011G25KT 5SM FU VCTS SCT080CB BKN100
     FM020600 04010KT 5SM FU SCT090
     FM021200 33015G20KT 5SM FU FEW050=



000
FTUS45 KBYZ 011740
TAFSHR
TAF
KSHR 011740Z 0118/0218 VRB06KT P6SM SCT070
     FM012200 33009KT P6SM VCTS SCT090CB
     FM020200 34015G20KT P6SM SCT080
     FM021200 36006KT P6SM FEW100=



000
FTUS45 KBYZ 011740
TAFLVM
TAF
KLVM 011740Z 0118/0218 28011KT P6SM VCTS SCT070CB
     FM020000 30011G20KT P6SM SCT050
     FM020100 07010KT P6SM FEW050
     FM021200 VRB05KT P6SM SKC=



000
FTUS45 KBYZ 011740
TAFMLS
TAF
KMLS 011740Z 0118/0218 36010KT 5SM FU SCT070
     FM012000 36011G25KT 5SM FU VCTS SCT080CB BKN100
     FM020600 04010KT 5SM FU SCT090
     FM021200 33015G20KT 5SM FU FEW050=



000
FTUS45 KBYZ 011740
TAFMLS
TAF
KMLS 011740Z 0118/0218 36010KT 5SM FU SCT070
     FM012000 36011G25KT 5SM FU VCTS SCT080CB BKN100
     FM020600 04010KT 5SM FU SCT090
     FM021200 33015G20KT 5SM FU FEW050=



000
FTUS45 KBYZ 011740
TAFSHR
TAF
KSHR 011740Z 0118/0218 VRB06KT P6SM SCT070
     FM012200 33009KT P6SM VCTS SCT090CB
     FM020200 34015G20KT P6SM SCT080
     FM021200 36006KT P6SM FEW100=



000
FTUS45 KBYZ 011740
TAFLVM
TAF
KLVM 011740Z 0118/0218 28011KT P6SM VCTS SCT070CB
     FM020000 30011G20KT P6SM SCT050
     FM020100 07010KT P6SM FEW050
     FM021200 VRB05KT P6SM SKC=



000
FTUS45 KBYZ 011740
TAFLVM
TAF
KLVM 011740Z 0118/0218 28011KT P6SM VCTS SCT070CB
     FM020000 30011G20KT P6SM SCT050
     FM020100 07010KT P6SM FEW050
     FM021200 VRB05KT P6SM SKC=



000
FTUS45 KBYZ 011740
TAFMLS
TAF
KMLS 011740Z 0118/0218 36010KT 5SM FU SCT070
     FM012000 36011G25KT 5SM FU VCTS SCT080CB BKN100
     FM020600 04010KT 5SM FU SCT090
     FM021200 33015G20KT 5SM FU FEW050=



000
FTUS45 KBYZ 011355 AAB
TAFMLS
TAF AMD
KMLS 011355Z 0114/0212 34007KT 4SM FU OVC030
      TEMPO 0114/0115 2SM FU
     FM011600 33010KT 5SM FU SCT030 SCT060
     FM012000 34011KT P6SM VCTS SCT060CB BKN100
     FM020300 02011G20KT P6SM VCTS SCT090CB=



000
FTUS45 KBYZ 011355 AAB
TAFMLS
TAF AMD
KMLS 011355Z 0114/0212 34007KT 4SM FU OVC030
      TEMPO 0114/0115 2SM FU
     FM011600 33010KT 5SM FU SCT030 SCT060
     FM012000 34011KT P6SM VCTS SCT060CB BKN100
     FM020300 02011G20KT P6SM VCTS SCT090CB=



000
FTUS45 KBYZ 011355 AAB
TAFMLS
TAF AMD
KMLS 011355Z 0114/0212 34007KT 4SM FU OVC030
      TEMPO 0114/0115 2SM FU
     FM011600 33010KT 5SM FU SCT030 SCT060
     FM012000 34011KT P6SM VCTS SCT060CB BKN100
     FM020300 02011G20KT P6SM VCTS SCT090CB=



000
FTUS45 KBYZ 011355 AAB
TAFMLS
TAF AMD
KMLS 011355Z 0114/0212 34007KT 4SM FU OVC030
      TEMPO 0114/0115 2SM FU
     FM011600 33010KT 5SM FU SCT030 SCT060
     FM012000 34011KT P6SM VCTS SCT060CB BKN100
     FM020300 02011G20KT P6SM VCTS SCT090CB=



000
FTUS45 KBYZ 011133 AAA
TAFMLS
TAF AMD
KMLS 011133Z 0112/0212 30009KT 2SM FU FEW070
      TEMPO 0112/0115 6SM FU
     FM011500 33010KT P6SM SCT060
     FM012000 34011KT P6SM VCTS SCT060CB BKN100
     FM020300 02011G20KT P6SM VCTS SCT090CB=



000
FTUS45 KBYZ 011133 AAA
TAFMLS
TAF AMD
KMLS 011133Z 0112/0212 30009KT 2SM FU FEW070
      TEMPO 0112/0115 6SM FU
     FM011500 33010KT P6SM SCT060
     FM012000 34011KT P6SM VCTS SCT060CB BKN100
     FM020300 02011G20KT P6SM VCTS SCT090CB=



000
FTUS45 KBYZ 011133 AAA
TAFMLS
TAF AMD
KMLS 011133Z 0112/0212 30009KT 2SM FU FEW070
      TEMPO 0112/0115 6SM FU
     FM011500 33010KT P6SM SCT060
     FM012000 34011KT P6SM VCTS SCT060CB BKN100
     FM020300 02011G20KT P6SM VCTS SCT090CB=



000
FTUS45 KBYZ 011133 AAA
TAFMLS
TAF AMD
KMLS 011133Z 0112/0212 30009KT 2SM FU FEW070
      TEMPO 0112/0115 6SM FU
     FM011500 33010KT P6SM SCT060
     FM012000 34011KT P6SM VCTS SCT060CB BKN100
     FM020300 02011G20KT P6SM VCTS SCT090CB=



000
FTUS45 KBYZ 011120
TAFSHR
TAF
KSHR 011120Z 0112/0212 VRB06KT P6SM SCT100
     FM012000 VRB06KT P6SM VCTS SCT090CB
     FM020300 34010G18KT P6SM VCTS SCT080CB=



000
FTUS45 KBYZ 011120
TAFBIL
TAF
KBIL 011120Z 0112/0212 VRB06KT P6SM SKC
     FM012000 02008KT P6SM VCSH SCT060=



000
FTUS45 KBYZ 011120
TAFMLS
TAF
KMLS 011120Z 0112/0212 30009KT P6SM FEW070
     FM011400 33010KT P6SM SCT060
     FM012000 34011KT P6SM VCTS SCT060CB BKN100
     FM020300 02011G20KT P6SM VCTS SCT090CB=



000
FTUS45 KBYZ 011120
TAFLVM
TAF
KLVM 011120Z 0112/0212 VRB05KT P6SM SCT120
     FM011800 28011KT P6SM VCTS SCT070CB
     FM012200 30011G20KT P6SM SCT050
     FM020100 VRB06KT P6SM FEW050
     FM020500 09010G18KT P6SM VCTS SCT070CB=



000
FTUS45 KBYZ 011120
TAFSHR
TAF
KSHR 011120Z 0112/0212 VRB06KT P6SM SCT100
     FM012000 VRB06KT P6SM VCTS SCT090CB
     FM020300 34010G18KT P6SM VCTS SCT080CB=



000
FTUS45 KBYZ 011120
TAFBIL
TAF
KBIL 011120Z 0112/0212 VRB06KT P6SM SKC
     FM012000 02008KT P6SM VCSH SCT060=



000
FTUS45 KBYZ 011120
TAFMLS
TAF
KMLS 011120Z 0112/0212 30009KT P6SM FEW070
     FM011400 33010KT P6SM SCT060
     FM012000 34011KT P6SM VCTS SCT060CB BKN100
     FM020300 02011G20KT P6SM VCTS SCT090CB=



000
FTUS45 KBYZ 011120
TAFMLS
TAF
KMLS 011120Z 0112/0212 30009KT P6SM FEW070
     FM011400 33010KT P6SM SCT060
     FM012000 34011KT P6SM VCTS SCT060CB BKN100
     FM020300 02011G20KT P6SM VCTS SCT090CB=



000
FTUS45 KBYZ 011120
TAFBIL
TAF
KBIL 011120Z 0112/0212 VRB06KT P6SM SKC
     FM012000 02008KT P6SM VCSH SCT060=



000
FTUS45 KBYZ 011120
TAFSHR
TAF
KSHR 011120Z 0112/0212 VRB06KT P6SM SCT100
     FM012000 VRB06KT P6SM VCTS SCT090CB
     FM020300 34010G18KT P6SM VCTS SCT080CB=



000
FTUS45 KBYZ 011120
TAFBIL
TAF
KBIL 011120Z 0112/0212 VRB06KT P6SM SKC
     FM012000 02008KT P6SM VCSH SCT060=



000
FTUS45 KBYZ 011120
TAFMLS
TAF
KMLS 011120Z 0112/0212 30009KT P6SM FEW070
     FM011400 33010KT P6SM SCT060
     FM012000 34011KT P6SM VCTS SCT060CB BKN100
     FM020300 02011G20KT P6SM VCTS SCT090CB=



000
FTUS45 KBYZ 011120
TAFLVM
TAF
KLVM 011120Z 0112/0212 VRB05KT P6SM SCT120
     FM011800 28011KT P6SM VCTS SCT070CB
     FM012200 30011G20KT P6SM SCT050
     FM020100 VRB06KT P6SM FEW050
     FM020500 09010G18KT P6SM VCTS SCT070CB=



000
FTUS45 KBYZ 011120
TAFLVM
TAF
KLVM 011120Z 0112/0212 VRB05KT P6SM SCT120
     FM011800 28011KT P6SM VCTS SCT070CB
     FM012200 30011G20KT P6SM SCT050
     FM020100 VRB06KT P6SM FEW050
     FM020500 09010G18KT P6SM VCTS SCT070CB=



000
FTUS45 KBYZ 011120
TAFSHR
TAF
KSHR 011120Z 0112/0212 VRB06KT P6SM SCT100
     FM012000 VRB06KT P6SM VCTS SCT090CB
     FM020300 34010G18KT P6SM VCTS SCT080CB=



000
FTUS45 KBYZ 011120
TAFLVM
TAF
KLVM 011120Z 0112/0212 VRB05KT P6SM SCT120
     FM011800 28011KT P6SM VCTS SCT070CB
     FM012200 30011G20KT P6SM SCT050
     FM020100 VRB06KT P6SM FEW050
     FM020500 09010G18KT P6SM VCTS SCT070CB=



000
FTUS45 KBYZ 010522
TAFBIL
TAF
KBIL 010522Z 0106/0206 36009KT P6SM SCT120
     FM010800 VRB06KT P6SM SKC
     FM012000 02008KT P6SM VCSH SCT060=



000
FTUS45 KBYZ 010522
TAFSHR
TAF
KSHR 010522Z 0106/0206 VRB06KT P6SM SCT100
     FM012000 VRB06KT P6SM VCTS SCT090CB
     FM020300 34010G18KT P6SM VCTS SCT080CB=



000
FTUS45 KBYZ 010522
TAFMLS
TAF
KMLS 010522Z 0106/0206 33011KT P6SM FEW070
     FM011400 33010KT P6SM SCT060
     FM012000 34011KT P6SM VCTS SCT060CB BKN100
     FM020300 02011G20KT P6SM VCTS SCT090CB=



000
FTUS45 KBYZ 010522
TAFBIL
TAF
KBIL 010522Z 0106/0206 36009KT P6SM SCT120
     FM010800 VRB06KT P6SM SKC
     FM012000 02008KT P6SM VCSH SCT060=



000
FTUS45 KBYZ 010522
TAFMLS
TAF
KMLS 010522Z 0106/0206 33011KT P6SM FEW070
     FM011400 33010KT P6SM SCT060
     FM012000 34011KT P6SM VCTS SCT060CB BKN100
     FM020300 02011G20KT P6SM VCTS SCT090CB=



000
FTUS45 KBYZ 010522
TAFSHR
TAF
KSHR 010522Z 0106/0206 VRB06KT P6SM SCT100
     FM012000 VRB06KT P6SM VCTS SCT090CB
     FM020300 34010G18KT P6SM VCTS SCT080CB=



000
FTUS45 KBYZ 010522
TAFBIL
TAF
KBIL 010522Z 0106/0206 36009KT P6SM SCT120
     FM010800 VRB06KT P6SM SKC
     FM012000 02008KT P6SM VCSH SCT060=



000
FTUS45 KBYZ 010522
TAFSHR
TAF
KSHR 010522Z 0106/0206 VRB06KT P6SM SCT100
     FM012000 VRB06KT P6SM VCTS SCT090CB
     FM020300 34010G18KT P6SM VCTS SCT080CB=



000
FTUS45 KBYZ 010522
TAFLVM
TAF
KLVM 010522Z 0106/0206 VRB05KT P6SM SCT120
     FM011800 28011KT P6SM VCTS SCT070CB
     FM012200 30011G20KT P6SM SCT050
     FM020100 VRB06KT P6SM FEW050
     FM020500 09010G18KT P6SM VCTS SCT070CB=



000
FTUS45 KBYZ 010522
TAFMLS
TAF
KMLS 010522Z 0106/0206 33011KT P6SM FEW070
     FM011400 33010KT P6SM SCT060
     FM012000 34011KT P6SM VCTS SCT060CB BKN100
     FM020300 02011G20KT P6SM VCTS SCT090CB=



000
FTUS45 KBYZ 010522
TAFLVM
TAF
KLVM 010522Z 0106/0206 VRB05KT P6SM SCT120
     FM011800 28011KT P6SM VCTS SCT070CB
     FM012200 30011G20KT P6SM SCT050
     FM020100 VRB06KT P6SM FEW050
     FM020500 09010G18KT P6SM VCTS SCT070CB=



000
FTUS45 KBYZ 010522
TAFBIL
TAF
KBIL 010522Z 0106/0206 36009KT P6SM SCT120
     FM010800 VRB06KT P6SM SKC
     FM012000 02008KT P6SM VCSH SCT060=



000
FTUS45 KBYZ 010522
TAFMLS
TAF
KMLS 010522Z 0106/0206 33011KT P6SM FEW070
     FM011400 33010KT P6SM SCT060
     FM012000 34011KT P6SM VCTS SCT060CB BKN100
     FM020300 02011G20KT P6SM VCTS SCT090CB=



000
FTUS45 KBYZ 010522
TAFLVM
TAF
KLVM 010522Z 0106/0206 VRB05KT P6SM SCT120
     FM011800 28011KT P6SM VCTS SCT070CB
     FM012200 30011G20KT P6SM SCT050
     FM020100 VRB06KT P6SM FEW050
     FM020500 09010G18KT P6SM VCTS SCT070CB=



000
FTUS45 KBYZ 010522
TAFSHR
TAF
KSHR 010522Z 0106/0206 VRB06KT P6SM SCT100
     FM012000 VRB06KT P6SM VCTS SCT090CB
     FM020300 34010G18KT P6SM VCTS SCT080CB=



    US Dept of Commerce
    National Oceanic and Atmospheric Administration
    National Weather Service
    1325 East West Highway
    Silver Spring, MD 20910
    Page Author: NWS Internet Services Team
Disclaimer
Information Quality
Credits
Glossary
Privacy Policy
Freedom of Information Act (FOIA)
About Us
Career Opportunities